PWSweather.com
Personal Weather Stations
Station Observations
WAREHAM1
West Wareham, MA 02576

West Wareham, MA 02576

Lat: 41.7961059, Lon: -70.775612

Elevation: 88

Station Type: Davis Vantage Vue

http://www.gateway2capecod.com

High Low Average
Temperature 38.8°F3.8°C 11.1°F-11.6°C 31.7°F-0.2°C
Dew Point 38.1°F3.4°C 4.5°F-15.3°C 30.1°F-1.1°C
Winds 4.0 mph 6.4 kmh Calm Calm 2.0 mph S3.2 kmh S
Wind Gusts 17.0 mph27.4 kmh -- 7.0 mph11.3 kmh
Humidity 97% 74% 94%
Pressure 30.04 in1017.3 mb 29.18 in988.1 mb -
Precipitation 3.10 in78.7 mm - -
Hour Temp Dew Point Humidity Winds Wind Gusts Pressure Precip Precip Rate Daily Precip Total
12:09 AM 33.3°F0.7°C 32.0°F0.0°C 95% 2.0 mph NE3.2 kmh NE 6.0 mph9.7 kmh 30.04 in1017.3 mb 0.00 in0.0 mm 0.00 in0.0 mm 0.00 in0.0 mm
12:19 AM 33.3°F0.7°C 32.0°F0.0°C 95% 2.9 mph NE4.7 kmh NE 7.0 mph11.3 kmh 30.02 in1016.6 mb 0.00 in0.0 mm 0.00 in0.0 mm 0.00 in0.0 mm
12:29 AM 33.3°F0.7°C 32.0°F0.0°C 95% 2.0 mph E3.2 kmh E 8.1 mph13.0 kmh 30.01 in1016.3 mb 0.00 in0.0 mm 0.00 in0.0 mm 0.00 in0.0 mm
12:39 AM 33.3°F0.7°C 32.2°F0.1°C 96% 2.0 mph NE3.2 kmh NE 6.9 mph11.1 kmh 30.01 in1016.3 mb 0.00 in0.0 mm 0.00 in0.0 mm 0.00 in0.0 mm
12:49 AM 33.3°F0.7°C 32.2°F0.1°C 96% 2.0 mph ESE3.2 kmh ESE 6.0 mph9.7 kmh 30.00 in1015.9 mb 0.00 in0.0 mm 0.00 in0.0 mm 0.00 in0.0 mm
12:59 AM 33.3°F0.7°C 32.2°F0.1°C 96% 2.0 mph E3.2 kmh E 6.9 mph11.1 kmh 29.98 in1015.2 mb 0.00 in0.0 mm 0.00 in0.0 mm 0.00 in0.0 mm
01:09 AM 33.3°F0.7°C 32.2°F0.1°C 96% 2.0 mph NE3.2 kmh NE 6.9 mph11.1 kmh 29.97 in1014.9 mb 0.00 in0.0 mm 0.00 in0.0 mm 0.00 in0.0 mm
01:19 AM 33.3°F0.7°C 32.2°F0.1°C 96% 2.0 mph NE3.2 kmh NE 8.1 mph13.0 kmh 29.97 in1014.9 mb 0.00 in0.0 mm 0.00 in0.0 mm 0.00 in0.0 mm
01:29 AM 33.1°F0.6°C 32.0°F0.0°C 96% 2.0 mph ESE3.2 kmh ESE 8.1 mph13.0 kmh 29.96 in1014.6 mb 0.00 in0.0 mm 0.00 in0.0 mm 0.00 in0.0 mm
01:39 AM 33.1°F0.6°C 32.0°F0.0°C 96% 2.0 mph NE3.2 kmh NE 8.1 mph13.0 kmh 29.96 in1014.6 mb 0.00 in0.0 mm 0.00 in0.0 mm 0.00 in0.0 mm
01:49 AM 33.1°F0.6°C 32.0°F0.0°C 96% 2.0 mph S3.2 kmh S 8.1 mph13.0 kmh 29.95 in1014.2 mb 0.00 in0.0 mm 0.00 in0.0 mm 0.00 in0.0 mm
01:59 AM 33.1°F0.6°C 32.0°F0.0°C 96% 2.0 mph ENE3.2 kmh ENE 6.9 mph11.1 kmh 29.94 in1013.9 mb 0.00 in0.0 mm 0.00 in0.0 mm 0.00 in0.0 mm
02:09 AM 33.1°F0.6°C 32.0°F0.0°C 96% 2.0 mph E3.2 kmh E 8.0 mph12.9 kmh 29.93 in1013.5 mb 0.00 in0.0 mm 0.00 in0.0 mm 0.00 in0.0 mm
02:19 AM 33.1°F0.6°C 32.0°F0.0°C 96% 2.0 mph ENE3.2 kmh ENE 7.0 mph11.3 kmh 29.93 in1013.5 mb 0.00 in0.0 mm 0.00 in0.0 mm 0.00 in0.0 mm
02:29 AM 33.1°F0.6°C 32.0°F0.0°C 96% 2.9 mph ENE4.7 kmh ENE 8.9 mph14.3 kmh 29.91 in1012.9 mb 0.00 in0.0 mm 0.00 in0.0 mm 0.00 in0.0 mm
02:39 AM 33.3°F0.7°C 32.2°F0.1°C 96% 4.0 mph ENE6.4 kmh ENE 10.1 mph16.3 kmh 29.87 in1011.5 mb 0.00 in0.0 mm 0.00 in0.0 mm 0.00 in0.0 mm
02:49 AM 33.3°F0.7°C 32.2°F0.1°C 96% 4.0 mph ENE6.4 kmh ENE 11.0 mph17.7 kmh 29.88 in1011.9 mb 0.00 in0.0 mm 0.00 in0.0 mm 0.00 in0.0 mm
02:59 AM 33.4°F0.8°C 32.4°F0.2°C 96% 2.0 mph NE3.2 kmh NE 6.0 mph9.7 kmh 29.88 in1011.9 mb 0.01 in0.3 mm 0.06 in1.5 mm 0.01 in0.3 mm
03:09 AM 33.4°F0.8°C 32.4°F0.2°C 96% 2.0 mph NE3.2 kmh NE 7.0 mph11.3 kmh 29.86 in1011.2 mb 0.06 in1.5 mm 0.06 in1.5 mm 0.06 in1.5 mm
03:19 AM 33.6°F0.9°C 32.5°F0.3°C 96% 2.9 mph E4.7 kmh E 7.0 mph11.3 kmh 29.85 in1010.8 mb 0.10 in2.5 mm 0.24 in6.1 mm 0.11 in2.8 mm
03:29 AM 33.8°F1.0°C 32.7°F0.4°C 96% 2.9 mph E4.7 kmh E 7.0 mph11.3 kmh 29.84 in1010.5 mb 0.15 in3.8 mm 0.30 in7.6 mm 0.16 in4.1 mm
03:39 AM 34.0°F1.1°C 32.9°F0.5°C 96% 2.9 mph ENE4.7 kmh ENE 6.9 mph11.1 kmh 29.84 in1010.5 mb 0.21 in5.3 mm 0.36 in9.1 mm 0.22 in5.6 mm
03:49 AM 34.2°F1.2°C 33.1°F0.6°C 96% 2.0 mph ENE3.2 kmh ENE 6.9 mph11.1 kmh 29.82 in1009.8 mb 0.28 in7.1 mm 0.42 in10.7 mm 0.29 in7.4 mm
03:59 AM 34.3°F1.3°C 33.3°F0.7°C 96% 2.0 mph ENE3.2 kmh ENE 4.9 mph7.9 kmh 29.80 in1009.1 mb 0.34 in8.6 mm 0.36 in9.1 mm 0.35 in8.9 mm
04:09 AM 34.7°F1.5°C 33.6°F0.9°C 96% 2.0 mph ENE3.2 kmh ENE 7.0 mph11.3 kmh 29.78 in1008.5 mb 0.35 in8.9 mm 0.01 in0.3 mm 0.41 in10.4 mm
04:19 AM 35.1°F1.7°C 34.3°F1.3°C 97% 2.9 mph NE4.7 kmh NE 11.0 mph17.7 kmh 29.78 in1008.5 mb 0.37 in9.4 mm 0.12 in3.0 mm 0.47 in11.9 mm
04:29 AM 34.9°F1.6°C 33.8°F1.0°C 96% 0.9 mph E1.4 kmh E 4.9 mph7.9 kmh 29.76 in1007.8 mb 0.40 in10.2 mm 0.18 in4.6 mm 0.56 in14.2 mm
04:39 AM 34.9°F1.6°C 33.8°F1.0°C 96% 0.9 mph NW1.4 kmh NW 6.0 mph9.7 kmh 29.74 in1007.1 mb 0.42 in10.7 mm 0.12 in3.0 mm 0.64 in16.3 mm
04:49 AM 35.1°F1.7°C 34.3°F1.3°C 97% 2.0 mph ENE3.2 kmh ENE 8.9 mph14.3 kmh 29.71 in1006.1 mb 0.47 in11.9 mm 0.30 in7.6 mm 0.76 in19.3 mm
04:59 AM 35.4°F1.9°C 34.7°F1.5°C 97% 4.0 mph ENE6.4 kmh ENE 12.1 mph19.5 kmh 29.72 in1006.4 mb 0.47 in11.9 mm 0.00 in0.0 mm 0.82 in20.8 mm
05:09 AM 35.4°F1.9°C 34.7°F1.5°C 97% 2.0 mph ENE3.2 kmh ENE 6.0 mph9.7 kmh 29.71 in1006.1 mb 0.44 in11.2 mm 0.00 in0.0 mm 0.85 in21.6 mm
05:19 AM 35.8°F2.1°C 35.1°F1.7°C 97% 2.9 mph NE4.7 kmh NE 8.9 mph14.3 kmh 29.70 in1005.8 mb 0.42 in10.7 mm 0.00 in0.0 mm 0.90 in22.9 mm
05:29 AM 36.0°F2.2°C 35.2°F1.8°C 97% 0.9 mph NNE1.4 kmh NNE 4.9 mph7.9 kmh 29.69 in1005.4 mb 0.38 in9.7 mm 0.00 in0.0 mm 0.94 in23.9 mm
05:39 AM 36.3°F2.4°C 35.6°F2.0°C 97% 2.9 mph ESE4.7 kmh ESE 8.1 mph13.0 kmh 29.66 in1004.4 mb 0.34 in8.6 mm 0.00 in0.0 mm 0.98 in24.9 mm
05:49 AM 36.7°F2.6°C 36.0°F2.2°C 97% 2.0 mph ESE3.2 kmh ESE 8.1 mph13.0 kmh 29.64 in1003.7 mb 0.25 in6.4 mm 0.00 in0.0 mm 1.00 in25.4 mm
05:59 AM 37.0°F2.8°C 36.3°F2.4°C 97% 2.9 mph E4.7 kmh E 12.1 mph19.5 kmh 29.61 in1002.7 mb 0.19 in4.8 mm 0.00 in0.0 mm 1.02 in25.9 mm
06:09 AM 37.6°F3.1°C 36.9°F2.7°C 97% 2.0 mph ENE3.2 kmh ENE 11.0 mph17.7 kmh 29.60 in1002.4 mb 0.18 in4.6 mm 0.00 in0.0 mm 1.03 in26.2 mm
06:19 AM 37.8°F3.2°C 37.0°F2.8°C 97% 0.9 mph E1.4 kmh E 6.9 mph11.1 kmh 29.59 in1002.0 mb 0.15 in3.8 mm 0.00 in0.0 mm 1.04 in26.4 mm
06:29 AM 38.1°F3.4°C 37.4°F3.0°C 97% 2.0 mph ENE3.2 kmh ENE 8.9 mph14.3 kmh 29.58 in1001.7 mb 0.13 in3.3 mm 0.00 in0.0 mm 1.06 in26.9 mm
06:39 AM 38.1°F3.4°C 37.4°F3.0°C 97% 0.9 mph SW1.4 kmh SW 6.9 mph11.1 kmh 29.56 in1001.0 mb 0.12 in3.0 mm 0.00 in0.0 mm 1.10 in27.9 mm
06:49 AM 38.1°F3.4°C 37.4°F3.0°C 97% Calm Calm -- 29.56 in1001.0 mb 0.12 in3.0 mm 0.00 in0.0 mm 1.13 in28.7 mm
06:59 AM 38.1°F3.4°C 37.4°F3.0°C 97% Calm Calm -- 29.54 in1000.3 mb 0.16 in4.1 mm 0.24 in6.1 mm 1.18 in30.0 mm
07:09 AM 37.9°F3.3°C 37.2°F2.9°C 97% Calm Calm -- 29.54 in1000.3 mb 0.17 in4.3 mm 0.01 in0.3 mm 1.20 in30.5 mm
07:19 AM 38.7°F3.7°C 37.9°F3.3°C 97% Calm Calm 2.0 mph3.2 kmh 29.52 in999.7 mb 0.22 in5.6 mm 0.30 in7.6 mm 1.26 in32.0 mm
07:29 AM 38.3°F3.5°C 37.6°F3.1°C 97% 0.9 mph W1.4 kmh W 6.0 mph9.7 kmh 29.54 in1000.3 mb 0.30 in7.6 mm 0.48 in12.2 mm 1.36 in34.5 mm
07:39 AM 38.1°F3.4°C 37.4°F3.0°C 97% 2.9 mph NW4.7 kmh NW 12.1 mph19.5 kmh 29.57 in1001.4 mb 0.34 in8.6 mm 0.24 in6.1 mm 1.44 in36.6 mm
07:49 AM 38.5°F3.6°C 37.8°F3.2°C 97% 0.9 mph E1.4 kmh E 6.0 mph9.7 kmh 29.53 in1000.0 mb 0.38 in9.7 mm 0.24 in6.1 mm 1.50 in38.1 mm
07:59 AM 38.3°F3.5°C 37.6°F3.1°C 97% 0.9 mph N1.4 kmh N 2.9 mph4.7 kmh 29.51 in999.3 mb 0.36 in9.1 mm 0.00 in0.0 mm 1.53 in38.9 mm
08:09 AM 38.1°F3.4°C 37.4°F3.0°C 97% Calm Calm 2.0 mph3.2 kmh 29.50 in999.0 mb 0.37 in9.4 mm 0.01 in0.3 mm 1.57 in39.9 mm
08:19 AM 38.5°F3.6°C 37.8°F3.2°C 97% Calm Calm 0.9 mph1.4 kmh 29.50 in999.0 mb 0.35 in8.9 mm 0.00 in0.0 mm 1.61 in40.9 mm
08:29 AM 38.3°F3.5°C 37.6°F3.1°C 97% Calm Calm -- 29.50 in999.0 mb 0.29 in7.4 mm 0.00 in0.0 mm 1.65 in41.9 mm
08:39 AM 38.5°F3.6°C 37.8°F3.2°C 97% Calm Calm -- 29.49 in998.6 mb 0.27 in6.9 mm 0.00 in0.0 mm 1.70 in43.2 mm
08:49 AM 38.5°F3.6°C 37.8°F3.2°C 97% Calm Calm -- 29.48 in998.3 mb 0.25 in6.4 mm 0.00 in0.0 mm 1.76 in44.7 mm
08:59 AM 38.5°F3.6°C 37.8°F3.2°C 97% Calm Calm -- 29.48 in998.3 mb 0.28 in7.1 mm 0.18 in4.6 mm 1.81 in46.0 mm
09:09 AM 38.5°F3.6°C 37.8°F3.2°C 97% 0.9 mph ENE1.4 kmh ENE 4.0 mph6.4 kmh 29.46 in997.6 mb 0.28 in7.1 mm 0.00 in0.0 mm 1.85 in47.0 mm
09:19 AM 38.7°F3.7°C 37.9°F3.3°C 97% Calm Calm 2.9 mph4.7 kmh 29.47 in998.0 mb 0.26 in6.6 mm 0.00 in0.0 mm 1.87 in47.5 mm
09:29 AM 38.7°F3.7°C 37.9°F3.3°C 97% Calm Calm 2.0 mph3.2 kmh 29.46 in997.6 mb 0.22 in5.6 mm 0.00 in0.0 mm 1.87 in47.5 mm
09:39 AM 38.7°F3.7°C 37.9°F3.3°C 97% Calm Calm -- 29.46 in997.6 mb 0.18 in4.6 mm 0.00 in0.0 mm 1.88 in47.8 mm
09:49 AM 38.5°F3.6°C 37.8°F3.2°C 97% Calm Calm -- 29.44 in997.0 mb 0.13 in3.3 mm 0.00 in0.0 mm 1.88 in47.8 mm
09:59 AM 38.5°F3.6°C 37.8°F3.2°C 97% Calm Calm 2.0 mph3.2 kmh 29.42 in996.3 mb 0.07 in1.8 mm 0.00 in0.0 mm 1.88 in47.8 mm
10:09 AM 38.8°F3.8°C 38.1°F3.4°C 97% 0.9 mph W1.4 kmh W 6.9 mph11.1 kmh 29.44 in997.0 mb 0.04 in1.0 mm 0.00 in0.0 mm 1.89 in48.0 mm
10:19 AM 38.5°F3.6°C 37.8°F3.2°C 97% 4.0 mph NW6.4 kmh NW 9.0 mph14.5 kmh 29.47 in998.0 mb 0.08 in2.0 mm 0.24 in6.1 mm 1.95 in49.5 mm
10:29 AM 38.5°F3.6°C 37.8°F3.2°C 97% 2.0 mph NNW3.2 kmh NNW 4.9 mph7.9 kmh 29.44 in997.0 mb 0.20 in5.1 mm 0.72 in18.3 mm 2.08 in52.8 mm
10:39 AM 38.5°F3.6°C 37.8°F3.2°C 97% 0.9 mph WSW1.4 kmh WSW 6.0 mph9.7 kmh 29.42 in996.3 mb 0.22 in5.6 mm 0.12 in3.0 mm 2.10 in53.3 mm
10:49 AM 38.7°F3.7°C 37.9°F3.3°C 97% Calm Calm 2.0 mph3.2 kmh 29.41 in995.9 mb 0.25 in6.4 mm 0.18 in4.6 mm 2.13 in54.1 mm
10:59 AM 38.8°F3.8°C 38.1°F3.4°C 97% Calm Calm 2.0 mph3.2 kmh 29.41 in995.9 mb 0.29 in7.4 mm 0.24 in6.1 mm 2.17 in55.1 mm
11:09 AM 38.8°F3.8°C 38.1°F3.4°C 97% Calm Calm 2.0 mph3.2 kmh 29.40 in995.6 mb 0.34 in8.6 mm 0.06 in1.5 mm 2.24 in56.9 mm
11:19 AM 38.5°F3.6°C 37.8°F3.2°C 97% 0.9 mph NE1.4 kmh NE 3.0 mph4.8 kmh 29.38 in994.9 mb 0.33 in8.4 mm 0.00 in0.0 mm 2.28 in57.9 mm
11:29 AM 38.7°F3.7°C 37.9°F3.3°C 97% 0.9 mph SW1.4 kmh SW 2.9 mph4.7 kmh 29.39 in995.3 mb 0.24 in6.1 mm 0.00 in0.0 mm 2.31 in58.7 mm
11:39 AM 38.8°F3.8°C 38.1°F3.4°C 97% 0.9 mph WSW1.4 kmh WSW 2.9 mph4.7 kmh 29.40 in995.6 mb 0.25 in6.4 mm 0.06 in1.5 mm 2.36 in59.9 mm
11:49 AM 38.8°F3.8°C 38.1°F3.4°C 97% 0.9 mph NNW1.4 kmh NNW 4.0 mph6.4 kmh 29.36 in994.2 mb 0.32 in8.1 mm 0.42 in10.7 mm 2.45 in62.2 mm
11:59 AM 38.8°F3.8°C 38.1°F3.4°C 97% Calm Calm 2.9 mph4.7 kmh 29.34 in993.6 mb 0.32 in8.1 mm 0.00 in0.0 mm 2.50 in63.5 mm
12:09 PM 38.8°F3.8°C 38.1°F3.4°C 97% Calm Calm 2.0 mph3.2 kmh 29.35 in993.9 mb 0.31 in7.9 mm 0.00 in0.0 mm 2.54 in64.5 mm
12:19 PM 38.8°F3.8°C 38.1°F3.4°C 97% Calm Calm 2.0 mph3.2 kmh 29.34 in993.6 mb 0.31 in7.9 mm 0.00 in0.0 mm 2.59 in65.8 mm
12:29 PM 38.5°F3.6°C 37.8°F3.2°C 97% Calm Calm 3.0 mph4.8 kmh 29.34 in993.6 mb 0.31 in7.9 mm 0.00 in0.0 mm 2.62 in66.5 mm
12:39 PM 38.3°F3.5°C 37.6°F3.1°C 97% Calm Calm 1.0 mph1.6 kmh 29.34 in993.6 mb 0.31 in7.9 mm 0.00 in0.0 mm 2.66 in67.6 mm
12:49 PM 37.8°F3.2°C 37.0°F2.8°C 97% 0.9 mph E1.4 kmh E 4.0 mph6.4 kmh 29.31 in992.6 mb 0.25 in6.4 mm 0.00 in0.0 mm 2.71 in68.8 mm
12:59 PM 37.2°F2.9°C 36.5°F2.5°C 97% 2.0 mph E3.2 kmh E 6.9 mph11.1 kmh 29.28 in991.5 mb 0.24 in6.1 mm 0.00 in0.0 mm 2.74 in69.6 mm
01:09 PM 36.9°F2.7°C 36.1°F2.3°C 97% 2.9 mph ENE4.7 kmh ENE 6.9 mph11.1 kmh 29.26 in990.9 mb 0.21 in5.3 mm 0.00 in0.0 mm 2.75 in69.9 mm
01:19 PM 36.5°F2.5°C 35.8°F2.1°C 97% 2.9 mph NNE4.7 kmh NNE 7.0 mph11.3 kmh 29.23 in989.8 mb 0.17 in4.3 mm 0.00 in0.0 mm 2.76 in70.1 mm
01:29 PM 36.5°F2.5°C 35.8°F2.1°C 97% 2.0 mph NNE3.2 kmh NNE 6.0 mph9.7 kmh 29.23 in989.8 mb 0.15 in3.8 mm 0.00 in0.0 mm 2.77 in70.4 mm
01:39 PM 36.5°F2.5°C 35.8°F2.1°C 97% 0.9 mph ENE1.4 kmh ENE 4.9 mph7.9 kmh 29.23 in989.8 mb 0.12 in3.0 mm 0.00 in0.0 mm 2.78 in70.6 mm
01:49 PM 36.5°F2.5°C 35.8°F2.1°C 97% 0.9 mph NE1.4 kmh NE 4.9 mph7.9 kmh 29.23 in989.8 mb 0.09 in2.3 mm 0.00 in0.0 mm 2.80 in71.1 mm
01:59 PM 36.5°F2.5°C 35.8°F2.1°C 97% 0.9 mph SE1.4 kmh SE 4.0 mph6.4 kmh 29.22 in989.5 mb 0.09 in2.3 mm 0.00 in0.0 mm 2.83 in71.9 mm
02:09 PM 36.5°F2.5°C 35.8°F2.1°C 97% Calm Calm 2.0 mph3.2 kmh 29.21 in989.2 mb 0.10 in2.5 mm 0.01 in0.3 mm 2.85 in72.4 mm
02:19 PM 36.7°F2.6°C 36.0°F2.2°C 97% Calm Calm 2.0 mph3.2 kmh 29.21 in989.2 mb 0.10 in2.5 mm 0.00 in0.0 mm 2.86 in72.6 mm
02:29 PM 37.0°F2.8°C 36.3°F2.4°C 97% Calm Calm 4.0 mph6.4 kmh 29.19 in988.5 mb 0.11 in2.8 mm 0.06 in1.5 mm 2.88 in73.2 mm
02:39 PM 37.2°F2.9°C 36.5°F2.5°C 97% 0.9 mph SE1.4 kmh SE 2.9 mph4.7 kmh 29.20 in988.8 mb 0.13 in3.3 mm 0.12 in3.0 mm 2.91 in73.9 mm
02:49 PM 37.6°F3.1°C 36.9°F2.7°C 97% 0.9 mph ESE1.4 kmh ESE 4.0 mph6.4 kmh 29.19 in988.5 mb 0.14 in3.6 mm 0.06 in1.5 mm 2.93 in74.4 mm
02:59 PM 37.9°F3.3°C 37.2°F2.9°C 97% Calm Calm 2.0 mph3.2 kmh 29.18 in988.1 mb 0.14 in3.6 mm 0.00 in0.0 mm 2.96 in75.2 mm
03:09 PM 38.5°F3.6°C 37.8°F3.2°C 97% Calm Calm 2.0 mph3.2 kmh 29.18 in988.1 mb 0.15 in3.8 mm 0.01 in0.3 mm 3.00 in76.2 mm
03:19 PM 37.0°F2.8°C 36.3°F2.4°C 97% 4.0 mph W6.4 kmh W 14.0 mph22.5 kmh 29.22 in989.5 mb 0.16 in4.1 mm 0.06 in1.5 mm 3.03 in77.0 mm
03:29 PM 35.8°F2.1°C 34.7°F1.5°C 96% 4.0 mph NW6.4 kmh NW 12.1 mph19.5 kmh 29.21 in989.2 mb 0.17 in4.3 mm 0.06 in1.5 mm 3.05 in77.5 mm
03:39 PM 35.1°F1.7°C 34.0°F1.1°C 96% 2.0 mph WNW3.2 kmh WNW 9.0 mph14.5 kmh 29.21 in989.2 mb 0.17 in4.3 mm 0.00 in0.0 mm 3.08 in78.2 mm
03:49 PM 33.8°F1.0°C 32.7°F0.4°C 96% 2.9 mph WNW4.7 kmh WNW 13.0 mph20.9 kmh 29.23 in989.8 mb 0.16 in4.1 mm 0.00 in0.0 mm 3.10 in78.7 mm
03:59 PM 31.8°F-0.1°C 30.6°F-0.8°C 95% 4.0 mph WNW6.4 kmh WNW 13.0 mph20.9 kmh 29.23 in989.8 mb 0.14 in3.6 mm 0.00 in0.0 mm 3.10 in78.7 mm
04:09 PM 30.0°F-1.1°C 28.8°F-1.8°C 95% 4.0 mph NW6.4 kmh NW 12.1 mph19.5 kmh 29.23 in989.8 mb 0.10 in2.5 mm 0.00 in0.0 mm 3.10 in78.7 mm
04:19 PM 28.8°F-1.8°C 27.5°F-2.5°C 95% 4.0 mph WNW6.4 kmh WNW 11.0 mph17.7 kmh 29.24 in990.2 mb 0.08 in2.0 mm 0.00 in0.0 mm 3.10 in78.7 mm
04:29 PM 27.0°F-2.8°C 25.7°F-3.5°C 95% 4.0 mph N6.4 kmh N 11.0 mph17.7 kmh 29.25 in990.5 mb 0.05 in1.3 mm 0.00 in0.0 mm 3.10 in78.7 mm
04:39 PM 25.9°F-3.4°C 24.6°F-4.1°C 95% 2.9 mph NW4.7 kmh NW 8.1 mph13.0 kmh 29.26 in990.9 mb 0.02 in0.5 mm 0.00 in0.0 mm 3.10 in78.7 mm
04:49 PM 25.2°F-3.8°C 23.9°F-4.5°C 95% 2.9 mph NW4.7 kmh NW 6.9 mph11.1 kmh 29.27 in991.2 mb 0.01 in0.3 mm 0.00 in0.0 mm 3.10 in78.7 mm
04:59 PM 24.4°F-4.2°C 23.2°F-4.9°C 95% 2.9 mph W4.7 kmh W 8.1 mph13.0 kmh 29.28 in991.5 mb 0.00 in0.0 mm 0.00 in0.0 mm 3.10 in78.7 mm
05:09 PM 24.4°F-4.2°C 23.2°F-4.9°C 95% 2.9 mph N4.7 kmh N 6.0 mph9.7 kmh 29.29 in991.9 mb 0.00 in0.0 mm 0.00 in0.0 mm 3.10 in78.7 mm
05:19 PM 24.4°F-4.2°C 23.2°F-4.9°C 95% 2.0 mph NW3.2 kmh NW 6.0 mph9.7 kmh 29.29 in991.9 mb 0.00 in0.0 mm 0.00 in0.0 mm 3.10 in78.7 mm
05:29 PM 24.6°F-4.1°C 23.4°F-4.8°C 95% 2.0 mph S3.2 kmh S 6.9 mph11.1 kmh 29.29 in991.9 mb 0.00 in0.0 mm 0.00 in0.0 mm 3.10 in78.7 mm
05:39 PM 25.0°F-3.9°C 23.7°F-4.6°C 95% 2.0 mph WNW3.2 kmh WNW 4.9 mph7.9 kmh 29.29 in991.9 mb 0.00 in0.0 mm 0.00 in0.0 mm 3.10 in78.7 mm
05:49 PM 25.2°F-3.8°C 23.9°F-4.5°C 95% 2.0 mph NW3.2 kmh NW 7.0 mph11.3 kmh 29.28 in991.5 mb 0.00 in0.0 mm 0.00 in0.0 mm 3.10 in78.7 mm
05:59 PM 25.3°F-3.7°C 24.1°F-4.4°C 95% 2.0 mph NNE3.2 kmh NNE -- 29.28 in991.5 mb 0.00 in0.0 mm 0.00 in0.0 mm 3.10 in78.7 mm
06:09 PM 25.3°F-3.7°C 24.1°F-4.4°C 95% 2.9 mph N4.7 kmh N 8.9 mph14.3 kmh 29.30 in992.2 mb 0.00 in0.0 mm 0.00 in0.0 mm 3.10 in78.7 mm
06:19 PM 25.3°F-3.7°C 24.1°F-4.4°C 95% 2.9 mph WNW4.7 kmh WNW 8.1 mph13.0 kmh 29.31 in992.6 mb 0.00 in0.0 mm 0.00 in0.0 mm 3.10 in78.7 mm
06:29 PM 25.5°F-3.6°C 24.3°F-4.3°C 95% 2.0 mph NW3.2 kmh NW 8.1 mph13.0 kmh 29.32 in992.9 mb 0.00 in0.0 mm 0.00 in0.0 mm 3.10 in78.7 mm
06:39 PM 25.3°F-3.7°C 24.1°F-4.4°C 95% 2.9 mph WNW4.7 kmh WNW 8.1 mph13.0 kmh 29.34 in993.6 mb 0.00 in0.0 mm 0.00 in0.0 mm 3.10 in78.7 mm
06:49 PM 25.3°F-3.7°C 24.1°F-4.4°C 95% 2.9 mph NW4.7 kmh NW 6.9 mph11.1 kmh 29.34 in993.6 mb 0.00 in0.0 mm 0.00 in0.0 mm 3.10 in78.7 mm
06:59 PM 25.3°F-3.7°C 23.9°F-4.5°C 94% 2.0 mph WSW3.2 kmh WSW 7.0 mph11.3 kmh 29.34 in993.6 mb 0.00 in0.0 mm 0.00 in0.0 mm 3.10 in78.7 mm
07:09 PM 25.5°F-3.6°C 24.1°F-4.4°C 94% 2.0 mph NW3.2 kmh NW 8.1 mph13.0 kmh 29.35 in993.9 mb 0.00 in0.0 mm 0.00 in0.0 mm 3.10 in78.7 mm
07:19 PM 25.5°F-3.6°C 24.1°F-4.4°C 94% 2.0 mph NNW3.2 kmh NNW 8.1 mph13.0 kmh 29.35 in993.9 mb 0.00 in0.0 mm 0.00 in0.0 mm 3.10 in78.7 mm
07:29 PM 25.7°F-3.5°C 24.3°F-4.3°C 94% 2.9 mph NW4.7 kmh NW 12.1 mph19.5 kmh 29.36 in994.2 mb 0.00 in0.0 mm 0.00 in0.0 mm 3.10 in78.7 mm
07:39 PM 25.9°F-3.4°C 24.1°F-4.4°C 93% 2.0 mph NW3.2 kmh NW 10.1 mph16.3 kmh 29.36 in994.2 mb 0.00 in0.0 mm 0.00 in0.0 mm 3.10 in78.7 mm
07:49 PM 25.9°F-3.4°C 24.1°F-4.4°C 93% 2.0 mph WNW3.2 kmh WNW 6.9 mph11.1 kmh 29.36 in994.2 mb 0.00 in0.0 mm 0.00 in0.0 mm 3.10 in78.7 mm
07:59 PM 25.9°F-3.4°C 23.9°F-4.5°C 92% 2.9 mph NW4.7 kmh NW 12.1 mph19.5 kmh 29.36 in994.2 mb 0.00 in0.0 mm 0.00 in0.0 mm 3.10 in78.7 mm
08:09 PM 25.9°F-3.4°C 23.5°F-4.7°C 91% 2.9 mph NNW4.7 kmh NNW 11.0 mph17.7 kmh 29.36 in994.2 mb 0.00 in0.0 mm 0.00 in0.0 mm 3.10 in78.7 mm
08:19 PM 25.7°F-3.5°C 23.4°F-4.8°C 91% 2.9 mph NNW4.7 kmh NNW 11.0 mph17.7 kmh 29.37 in994.6 mb 0.00 in0.0 mm 0.00 in0.0 mm 3.10 in78.7 mm
08:29 PM 25.3°F-3.7°C 22.6°F-5.2°C 89% 2.9 mph NW4.7 kmh NW 11.0 mph17.7 kmh 29.39 in995.3 mb 0.00 in0.0 mm 0.00 in0.0 mm 3.10 in78.7 mm
08:39 PM 24.6°F-4.1°C 21.4°F-5.9°C 87% 2.9 mph NW4.7 kmh NW 10.1 mph16.3 kmh 29.39 in995.3 mb 0.00 in0.0 mm 0.00 in0.0 mm 3.10 in78.7 mm
08:49 PM 24.1°F-4.4°C 20.5°F-6.4°C 86% 2.9 mph NW4.7 kmh NW 10.1 mph16.3 kmh 29.40 in995.6 mb 0.00 in0.0 mm 0.00 in0.0 mm 3.10 in78.7 mm
08:59 PM 23.5°F-4.7°C 19.9°F-6.7°C 86% 2.0 mph WSW3.2 kmh WSW 8.9 mph14.3 kmh 29.42 in996.3 mb 0.00 in0.0 mm 0.00 in0.0 mm 3.10 in78.7 mm
09:09 PM 22.5°F-5.3°C 17.8°F-7.9°C 82% 4.0 mph SSW6.4 kmh SSW 15.0 mph24.1 kmh 29.42 in996.3 mb 0.00 in0.0 mm 0.00 in0.0 mm 3.10 in78.7 mm
09:19 PM 21.4°F-5.9°C 16.2°F-8.8°C 80% 4.0 mph NE6.4 kmh NE 15.0 mph24.1 kmh 29.43 in996.6 mb 0.00 in0.0 mm 0.00 in0.0 mm 3.10 in78.7 mm
09:29 PM 20.8°F-6.2°C 16.0°F-8.9°C 81% 2.9 mph WNW4.7 kmh WNW 8.9 mph14.3 kmh 29.44 in997.0 mb 0.00 in0.0 mm 0.00 in0.0 mm 3.10 in78.7 mm
09:39 PM 19.9°F-6.7°C 14.7°F-9.6°C 80% 4.0 mph WNW6.4 kmh WNW 17.0 mph27.4 kmh 29.44 in997.0 mb 0.00 in0.0 mm 0.00 in0.0 mm 3.10 in78.7 mm
09:49 PM 19.6°F-6.9°C 14.7°F-9.6°C 81% 2.9 mph SW4.7 kmh SW 10.1 mph16.3 kmh 29.45 in997.3 mb 0.00 in0.0 mm 0.00 in0.0 mm 3.10 in78.7 mm
09:59 PM 19.0°F-7.2°C 13.6°F-10.2°C 79% 4.0 mph W6.4 kmh W 13.0 mph20.9 kmh 29.45 in997.3 mb 0.00 in0.0 mm 0.00 in0.0 mm 3.10 in78.7 mm
10:09 PM 18.7°F-7.4°C 13.5°F-10.3°C 80% 2.0 mph NW3.2 kmh NW 8.1 mph13.0 kmh 29.47 in998.0 mb 0.00 in0.0 mm 0.00 in0.0 mm 3.10 in78.7 mm
10:19 PM 18.1°F-7.7°C 13.1°F-10.5°C 80% 2.9 mph WNW4.7 kmh WNW 12.1 mph19.5 kmh 29.48 in998.3 mb 0.00 in0.0 mm 0.00 in0.0 mm 3.10 in78.7 mm
10:29 PM 17.6°F-8.0°C 12.6°F-10.8°C 80% 2.9 mph W4.7 kmh W 8.1 mph13.0 kmh 29.48 in998.3 mb 0.00 in0.0 mm 0.00 in0.0 mm 3.10 in78.7 mm
10:39 PM 16.9°F-8.4°C 11.5°F-11.4°C 79% 2.9 mph NW4.7 kmh NW 13.0 mph20.9 kmh 29.48 in998.3 mb 0.00 in0.0 mm 0.00 in0.0 mm 3.10 in78.7 mm
10:49 PM 16.2°F-8.8°C 10.2°F-12.1°C 77% 2.9 mph WNW4.7 kmh WNW 10.1 mph16.3 kmh 29.49 in998.6 mb 0.00 in0.0 mm 0.00 in0.0 mm 3.10 in78.7 mm
10:59 PM 15.6°F-9.1°C 10.0°F-12.2°C 78% 2.9 mph WNW4.7 kmh WNW 12.1 mph19.5 kmh 29.49 in998.6 mb 0.00 in0.0 mm 0.00 in0.0 mm 3.10 in78.7 mm
11:09 PM 14.9°F-9.5°C 9.0°F-12.8°C 77% 2.0 mph W3.2 kmh W 13.0 mph20.9 kmh 29.51 in999.3 mb 0.00 in0.0 mm 0.00 in0.0 mm 3.10 in78.7 mm
11:19 PM 14.0°F-10.0°C 7.9°F-13.4°C 76% 2.9 mph NW4.7 kmh NW 11.0 mph17.7 kmh 29.51 in999.3 mb 0.00 in0.0 mm 0.00 in0.0 mm 3.10 in78.7 mm
11:29 PM 13.3°F-10.4°C 6.8°F-14.0°C 75% 4.0 mph NW6.4 kmh NW 10.1 mph16.3 kmh 29.52 in999.7 mb 0.00 in0.0 mm 0.00 in0.0 mm 3.10 in78.7 mm
11:39 PM 12.6°F-10.8°C 6.1°F-14.4°C 75% 2.9 mph NNW4.7 kmh NNW 10.1 mph16.3 kmh 29.53 in1000.0 mb 0.00 in0.0 mm 0.00 in0.0 mm 3.10 in78.7 mm
11:49 PM 11.8°F-11.2°C 5.2°F-14.9°C 74% 2.0 mph NE3.2 kmh NE 8.9 mph14.3 kmh 29.54 in1000.3 mb 0.00 in0.0 mm 0.00 in0.0 mm 3.10 in78.7 mm
11:59 PM 11.1°F-11.6°C 4.5°F-15.3°C 74% 2.9 mph WNW4.7 kmh WNW 14.1 mph22.7 kmh 29.54 in1000.3 mb 0.00 in0.0 mm 0.00 in0.0 mm 3.10 in78.7 mm